M I D A S
Marine Information and Data Acquisition System
Tripno 1183 of the Zeeleeuw from 2006-12-22 08:53:50 to 2006-12-22 12:16:46
Back to CruiseResearch ActivitiesStationsMapUnderway DataData graphs

EquipmentUnitsComments
TimeDGPSUTC
LatitudeDGPSDM.mWGS84
LongitudeDGPSDM.mWGS84
SpeedMeteo Stationm/sRelative wind speed
DirectionMeteo StationdegRelative wind direction
TemperatureMeteo Stationdeg CelciusAir temperature
PressureMeteo StationPaAtmospheric pressure
HumidityMeteo Station%Relative humidity
Missing or incorrect values are displayed as -999
Metereological data collected by the RV Zeeleeuw from 2006-12-22 07:35:38 to 2006-12-22 12:28:48
Time Latitude Longitude Speed Direction Temperature Pressure Humidity
2006-12-22 07:36 51°13.611 2°56.036 -999 -999 -999 -999 -999
2006-12-22 07:37 51°13.648 2°55.924 -999 -999 -999 -999 -999
2006-12-22 07:38 51°13.707 2°55.802 -999 -999 -999 -999 -999
2006-12-22 07:39 51°13.729 2°55.702 -999 -999 -999 -999 -999
2006-12-22 07:40 51°13.735 2°55.707 -999 -999 -999 -999 -999
2006-12-22 07:41 51°13.747 2°55.691 -999 -999 -999 -999 -999
2006-12-22 07:42 51°13.845 2°55.625 -999 -999 -999 -999 -999
2006-12-22 07:43 51°13.979 2°55.527 -999 -999 -999 -999 -999
2006-12-22 07:44 51°14.105 2°55.435 -999 -999 -999 -999 -999
2006-12-22 07:45 51°14.229 2°55.316 -999 -999 -999 -999 -999
2006-12-22 07:46 51°14.326 2°55.134 -999 -999 -999 -999 -999
2006-12-22 07:47 51°14.411 2°54.874 -999 -999 -999 -999 -999
2006-12-22 07:48 51°14.435 2°54.536 -999 -999 -999 -999 -999
2006-12-22 07:49 51°14.349 2°54.2 -999 -999 -999 -999 -999
2006-12-22 07:50 51°14.249 2°53.865 -999 -999 -999 -999 -999
2006-12-22 07:51 51°14.155 2°53.516 -999 -999 -999 -999 -999
2006-12-22 07:52 51°14.061 2°53.159 -999 -999 -999 -999 -999
2006-12-22 07:53 51°13.959 2°52.8 -999 -999 -999 -999 -999
2006-12-22 07:54 51°13.854 2°52.44 -999 -999 -999 -999 -999
2006-12-22 07:55 51°13.745 2°52.083 -999 -999 -999 -999 -999
2006-12-22 07:56 51°13.634 2°51.728 -999 -999 -999 -999 -999
2006-12-22 07:57 51°13.516 2°51.378 -999 -999 -999 -999 -999
2006-12-22 07:58 51°13.388 2°51.033 -999 -999 -999 -999 -999
2006-12-22 07:59 51°13.259 2°50.687 -999 -999 -999 -999 -999
2006-12-22 08:00 51°13.125 2°50.346 -999 -999 -999 -999 -999
2006-12-22 08:01 51°12.992 2°50.008 -999 -999 -999 -999 -999
2006-12-22 08:02 51°12.859 2°49.668 -999 -999 -999 -999 -999
2006-12-22 08:03 51°12.722 2°49.327 -999 -999 -999 -999 -999
2006-12-22 08:04 51°12.586 2°48.977 -999 -999 -999 -999 -999
2006-12-22 08:05 51°12.449 2°48.629 -999 -999 -999 -999 -999
2006-12-22 08:06 51°12.314 2°48.28 -999 -999 -999 -999 -999
2006-12-22 08:07 51°12.177 2°47.934 -999 -999 -999 -999 -999
2006-12-22 08:08 51°12.045 2°47.585 -999 -999 -999 -999 -999
2006-12-22 08:09 51°11.911 2°47.236 -999 -999 -999 -999 -999
2006-12-22 08:10 51°11.78 2°46.889 -999 -999 -999 -999 -999
2006-12-22 08:11 51°11.649 2°46.545 -999 -999 -999 -999 -999
2006-12-22 08:12 51°11.519 2°46.202 -999 -999 -999 -999 -999
2006-12-22 08:13 51°11.403 2°45.852 -999 -999 -999 -999 -999
2006-12-22 08:14 51°11.305 2°45.485 -999 -999 -999 -999 -999
2006-12-22 08:15 51°11.218 2°45.112 -999 -999 -999 -999 -999
2006-12-22 08:16 51°11.144 2°44.73 -999 -999 -999 -999 -999
2006-12-22 08:17 51°11.079 2°44.343 -999 -999 -999 -999 -999
2006-12-22 08:18 51°11.013 2°43.956 -999 -999 -999 -999 -999
2006-12-22 08:19 51°10.951 2°43.566 -999 -999 -999 -999 -999
2006-12-22 08:20 51°10.889 2°43.177 -999 -999 -999 -999 -999
2006-12-22 08:21 51°10.826 2°42.788 -999 -999 -999 -999 -999
2006-12-22 08:22 51°10.765 2°42.397 -999 -999 -999 -999 -999
2006-12-22 08:23 51°10.704 2°42.007 -999 -999 -999 -999 -999
2006-12-22 08:24 51°10.643 2°41.618 -999 -999 -999 -999 -999
2006-12-22 08:25 51°10.581 2°41.229 -999 -999 -999 -999 -999
2006-12-22 08:26 51°10.523 2°40.838 -999 -999 -999 -999 -999
2006-12-22 08:27 51°10.464 2°40.446 -999 -999 -999 -999 -999
2006-12-22 08:28 51°10.405 2°40.054 -999 -999 -999 -999 -999
2006-12-22 08:29 51°10.35 2°39.66 -999 -999 -999 -999 -999
2006-12-22 08:30 51°10.294 2°39.265 -999 -999 -999 -999 -999
2006-12-22 08:31 51°10.236 2°38.869 -999 -999 -999 -999 -999
2006-12-22 08:32 51°10.18 2°38.473 -999 -999 -999 -999 -999
2006-12-22 08:33 51°10.125 2°38.076 -999 -999 -999 -999 -999
2006-12-22 08:34 51°10.078 2°37.678 -999 -999 -999 -999 -999
2006-12-22 08:35 51°10.032 2°37.28 -999 -999 -999 -999 -999
2006-12-22 08:36 51°9.984 2°36.878 -999 -999 -999 -999 -999
2006-12-22 08:37 51°9.944 2°36.475 -999 -999 -999 -999 -999
2006-12-22 08:38 51°9.938 2°36.076 -999 -999 -999 -999 -999
2006-12-22 08:39 51°10.028 2°35.717 -999 -999 -999 -999 -999
2006-12-22 08:40 51°10.191 2°35.48 -999 -999 -999 -999 -999
2006-12-22 08:41 51°10.401 2°35.475 -999 -999 -999 -999 -999
2006-12-22 08:42 51°10.577 2°35.645 -999 -999 -999 -999 -999
2006-12-22 08:43 51°10.746 2°35.838 -999 -999 -999 -999 -999
2006-12-22 08:44 51°10.915 2°36.034 -999 -999 -999 -999 -999
2006-12-22 08:45 51°11.083 2°36.234 -999 -999 -999 -999 -999
2006-12-22 08:46 51°11.25 2°36.434 -999 -999 -999 -999 -999
2006-12-22 08:47 51°11.423 2°36.623 -999 -999 -999 -999 -999
2006-12-22 08:48 51°11.595 2°36.813 -999 -999 -999 -999 -999
2006-12-22 08:49 51°11.768 2°37.001 -999 -999 -999 -999 -999
2006-12-22 08:50 51°11.946 2°37.177 -999 -999 -999 -999 -999
2006-12-22 08:51 51°12.127 2°37.342 -999 -999 -999 -999 -999
2006-12-22 08:52 51°12.309 2°37.508 -999 -999 -999 -999 -999
2006-12-22 08:53 51°12.491 2°37.671 -999 -999 -999 -999 -999
2006-12-22 08:54 51°12.674 2°37.835 -999 -999 -999 -999 -999
2006-12-22 08:55 51°12.857 2°37.998 -999 -999 -999 -999 -999
2006-12-22 08:56 51°13.041 2°38.16 -999 -999 -999 -999 -999
2006-12-22 08:57 51°13.227 2°38.321 -999 -999 -999 -999 -999
2006-12-22 08:58 51°13.411 2°38.483 -999 -999 -999 -999 -999
2006-12-22 08:59 51°13.602 2°38.63 -999 -999 -999 -999 -999
2006-12-22 09:00 51°13.795 2°38.771 -999 -999 -999 -999 -999
2006-12-22 09:01 51°14.006 2°38.8 -999 -999 -999 -999 -999
2006-12-22 09:02 51°14.19 2°38.607 -999 -999 -999 -999 -999
2006-12-22 09:03 51°14.249 2°38.246 -999 -999 -999 -999 -999
2006-12-22 09:04 51°14.168 2°37.865 -999 -999 -999 -999 -999
2006-12-22 09:05 51°14.074 2°37.483 -999 -999 -999 -999 -999
2006-12-22 09:06 51°13.985 2°37.1 -999 -999 -999 -999 -999
2006-12-22 09:07 51°13.884 2°36.723 -999 -999 -999 -999 -999
2006-12-22 09:08 51°13.784 2°36.346 -999 -999 -999 -999 -999
2006-12-22 09:09 51°13.672 2°35.976 -999 -999 -999 -999 -999
2006-12-22 09:10 51°13.558 2°35.61 -999 -999 -999 -999 -999
2006-12-22 09:11 51°13.444 2°35.242 -999 -999 -999 -999 -999
2006-12-22 09:12 51°13.33 2°34.876 -999 -999 -999 -999 -999
2006-12-22 09:13 51°13.217 2°34.515 -999 -999 -999 -999 -999
2006-12-22 09:14 51°13.105 2°34.154 -999 -999 -999 -999 -999
2006-12-22 09:15 51°12.995 2°33.793 -999 -999 -999 -999 -999
2006-12-22 09:16 51°12.888 2°33.433 -999 -999 -999 -999 -999
2006-12-22 09:17 51°12.779 2°33.073 -999 -999 -999 -999 -999
2006-12-22 09:18 51°12.669 2°32.713 -999 -999 -999 -999 -999
2006-12-22 09:19 51°12.559 2°32.348 -999 -999 -999 -999 -999
2006-12-22 09:20 51°12.447 2°31.979 -999 -999 -999 -999 -999
2006-12-22 09:21 51°12.335 2°31.608 -999 -999 -999 -999 -999
2006-12-22 09:22 51°12.221 2°31.236 -999 -999 -999 -999 -999
2006-12-22 09:23 51°12.106 2°30.862 -999 -999 -999 -999 -999
2006-12-22 09:24 51°11.991 2°30.489 -999 -999 -999 -999 -999
2006-12-22 09:25 51°11.876 2°30.113 -999 -999 -999 -999 -999
2006-12-22 09:26 51°11.761 2°29.738 -999 -999 -999 -999 -999
2006-12-22 09:27 51°11.654 2°29.357 -999 -999 -999 -999 -999
2006-12-22 09:28 51°11.553 2°28.972 -999 -999 -999 -999 -999
2006-12-22 09:29 51°11.459 2°28.584 -999 -999 -999 -999 -999
2006-12-22 09:30 51°11.364 2°28.196 -999 -999 -999 -999 -999
2006-12-22 09:31 51°11.274 2°27.806 -999 -999 -999 -999 -999
2006-12-22 09:32 51°11.27 2°27.407 -999 -999 -999 -999 -999
2006-12-22 09:33 51°11.432 2°27.147 -999 -999 -999 -999 -999
2006-12-22 09:34 51°11.652 2°27.151 -999 -999 -999 -999 -999
2006-12-22 09:35 51°11.865 2°27.199 -999 -999 -999 -999 -999
2006-12-22 09:36 51°12.081 2°27.198 -999 -999 -999 -999 -999
2006-12-22 09:37 51°12.303 2°27.236 -999 -999 -999 -999 -999
2006-12-22 09:38 51°12.498 2°27.393 -999 -999 -999 -999 -999
2006-12-22 09:39 51°12.685 2°27.569 -999 -999 -999 -999 -999
2006-12-22 09:40 51°12.871 2°27.748 -999 -999 -999 -999 -999
2006-12-22 09:41 51°13.049 2°27.943 -999 -999 -999 -999 -999
2006-12-22 09:42 51°13.224 2°28.142 -999 -999 -999 -999 -999
2006-12-22 09:43 51°13.396 2°28.348 -999 -999 -999 -999 -999
2006-12-22 09:44 51°13.568 2°28.554 -999 -999 -999 -999 -999
2006-12-22 09:45 51°13.742 2°28.758 -999 -999 -999 -999 -999
2006-12-22 09:46 51°13.916 2°28.963 -999 -999 -999 -999 -999
2006-12-22 09:47 51°14.09 2°29.166 -999 -999 -999 -999 -999
2006-12-22 09:48 51°14.263 2°29.372 -999 -999 -999 -999 -999
2006-12-22 09:49 51°14.436 2°29.577 -999 -999 -999 -999 -999
2006-12-22 09:50 51°14.609 2°29.781 -999 -999 -999 -999 -999
2006-12-22 09:51 51°14.781 2°29.984 -999 -999 -999 -999 -999
2006-12-22 09:52 51°14.955 2°30.185 -999 -999 -999 -999 -999
2006-12-22 09:53 51°15.128 2°30.382 -999 -999 -999 -999 -999
2006-12-22 09:54 51°15.3 2°30.58 -999 -999 -999 -999 -999
2006-12-22 09:55 51°15.473 2°30.777 -999 -999 -999 -999 -999
2006-12-22 09:56 51°15.645 2°30.974 -999 -999 -999 -999 -999
2006-12-22 09:57 51°15.818 2°31.173 -999 -999 -999 -999 -999
2006-12-22 09:58 51°15.992 2°31.371 -999 -999 -999 -999 -999
2006-12-22 09:59 51°16.166 2°31.57 -999 -999 -999 -999 -999
2006-12-22 10:00 51°16.338 2°31.771 -999 -999 -999 -999 -999
2006-12-22 10:01 51°16.508 2°31.975 -999 -999 -999 -999 -999
2006-12-22 10:02 51°16.678 2°32.177 -999 -999 -999 -999 -999
2006-12-22 10:03 51°16.849 2°32.38 -999 -999 -999 -999 -999
2006-12-22 10:04 51°17.018 2°32.585 -999 -999 -999 -999 -999
2006-12-22 10:05 51°17.186 2°32.79 -999 -999 -999 -999 -999
2006-12-22 10:06 51°17.355 2°32.994 -999 -999 -999 -999 -999
2006-12-22 10:07 51°17.524 2°33.194 -999 -999 -999 -999 -999
2006-12-22 10:08 51°17.69 2°33.395 -999 -999 -999 -999 -999
2006-12-22 10:09 51°17.858 2°33.595 -999 -999 -999 -999 -999
2006-12-22 10:10 51°18.028 2°33.796 -999 -999 -999 -999 -999
2006-12-22 10:11 51°18.198 2°33.999 -999 -999 -999 -999 -999
2006-12-22 10:12 51°18.366 2°34.204 -999 -999 -999 -999 -999
2006-12-22 10:13 51°18.533 2°34.411 -999 -999 -999 -999 -999
2006-12-22 10:14 51°18.7 2°34.617 -999 -999 -999 -999 -999
2006-12-22 10:15 51°18.867 2°34.823 -999 -999 -999 -999 -999
2006-12-22 10:16 51°19.033 2°35.03 -999 -999 -999 -999 -999
2006-12-22 10:17 51°19.2 2°35.238 -999 -999 -999 -999 -999
2006-12-22 10:18 51°19.368 2°35.445 -999 -999 -999 -999 -999
2006-12-22 10:19 51°19.533 2°35.654 -999 -999 -999 -999 -999
2006-12-22 10:20 51°19.701 2°35.859 -999 -999 -999 -999 -999
2006-12-22 10:21 51°19.868 2°36.066 -999 -999 -999 -999 -999
2006-12-22 10:22 51°20.033 2°36.276 -999 -999 -999 -999 -999
2006-12-22 10:23 51°20.198 2°36.485 -999 -999 -999 -999 -999
2006-12-22 10:24 51°20.364 2°36.696 -999 -999 -999 -999 -999
2006-12-22 10:25 51°20.529 2°36.907 -999 -999 -999 -999 -999
2006-12-22 10:26 51°20.694 2°37.117 -999 -999 -999 -999 -999
2006-12-22 10:27 51°20.863 2°37.318 -999 -999 -999 -999 -999
2006-12-22 10:28 51°21.067 2°37.417 -999 -999 -999 -999 -999
2006-12-22 10:29 51°21.274 2°37.504 -999 -999 -999 -999 -999
2006-12-22 10:30 51°21.483 2°37.575 -999 -999 -999 -999 -999
2006-12-22 10:31 51°21.699 2°37.604 -999 -999 -999 -999 -999
2006-12-22 10:32 51°21.916 2°37.637 -999 -999 -999 -999 -999
2006-12-22 10:33 51°22.133 2°37.67 -999 -999 -999 -999 -999
2006-12-22 10:34 51°22.349 2°37.702 -999 -999 -999 -999 -999
2006-12-22 10:35 51°22.566 2°37.737 -999 -999 -999 -999 -999
2006-12-22 10:36 51°22.783 2°37.772 -999 -999 -999 -999 -999
2006-12-22 10:37 51°23.001 2°37.809 -999 -999 -999 -999 -999
2006-12-22 10:38 51°23.219 2°37.845 -999 -999 -999 -999 -999
2006-12-22 10:39 51°23.433 2°37.906 -999 -999 -999 -999 -999
2006-12-22 10:40 51°23.64 2°38.005 -999 -999 -999 -999 -999
2006-12-22 10:41 51°23.846 2°38.109 -999 -999 -999 -999 -999
2006-12-22 10:42 51°24.044 2°38.238 -999 -999 -999 -999 -999
2006-12-22 10:43 51°24.194 2°38.475 -999 -999 -999 -999 -999
2006-12-22 10:44 51°24.334 2°38.732 -999 -999 -999 -999 -999
2006-12-22 10:45 51°24.461 2°39.006 -999 -999 -999 -999 -999
2006-12-22 10:46 51°24.569 2°39.306 -999 -999 -999 -999 -999
2006-12-22 10:47 51°24.68 2°39.602 -999 -999 -999 -999 -999
2006-12-22 10:48 51°24.792 2°39.899 -999 -999 -999 -999 -999
2006-12-22 10:49 51°24.906 2°40.195 -999 -999 -999 -999 -999
2006-12-22 10:50 51°25.011 2°40.497 -999 -999 -999 -999 -999
2006-12-22 10:51 51°25.047 2°40.842 -999 -999 -999 -999 -999
2006-12-22 10:52 51°25.064 2°41.195 -999 -999 -999 -999 -999
2006-12-22 10:53 51°25.063 2°41.551 -999 -999 -999 -999 -999
2006-12-22 10:54 51°25.059 2°41.908 -999 -999 -999 -999 -999
2006-12-22 10:55 51°25.057 2°42.264 -999 -999 -999 -999 -999
2006-12-22 10:56 51°25.052 2°42.619 -999 -999 -999 -999 -999
2006-12-22 10:57 51°25.048 2°42.974 -999 -999 -999 -999 -999
2006-12-22 10:58 51°25.044 2°43.329 -999 -999 -999 -999 -999
2006-12-22 10:59 51°25.02 2°43.684 -999 -999 -999 -999 -999
2006-12-22 11:00 51°24.96 2°44.033 -999 -999 -999 -999 -999
2006-12-22 11:01 51°24.884 2°44.376 -999 -999 -999 -999 -999
2006-12-22 11:02 51°24.806 2°44.72 -999 -999 -999 -999 -999
2006-12-22 11:03 51°24.674 2°45.025 -999 -999 -999 -999 -999
2006-12-22 11:04 51°24.537 2°45.326 -999 -999 -999 -999 -999
2006-12-22 11:05 51°24.403 2°45.631 -999 -999 -999 -999 -999
2006-12-22 11:06 51°24.269 2°45.937 -999 -999 -999 -999 -999
2006-12-22 11:07 51°24.12 2°46.222 -999 -999 -999 -999 -999
2006-12-22 11:08 51°23.93 2°46.435 -999 -999 -999 -999 -999
2006-12-22 11:09 51°23.724 2°46.618 -999 -999 -999 -999 -999
2006-12-22 11:10 51°23.518 2°46.803 -999 -999 -999 -999 -999
2006-12-22 11:11 51°23.311 2°46.989 -999 -999 -999 -999 -999
2006-12-22 11:12 51°23.089 2°47.126 -999 -999 -999 -999 -999
2006-12-22 11:13 51°22.856 2°47.217 -999 -999 -999 -999 -999
2006-12-22 11:14 51°22.62 2°47.279 -999 -999 -999 -999 -999
2006-12-22 11:15 51°22.38 2°47.253 -999 -999 -999 -999 -999
2006-12-22 11:16 51°22.256 2°46.948 -999 -999 -999 -999 -999
2006-12-22 11:17 51°22.157 2°46.604 -999 -999 -999 -999 -999
2006-12-22 11:18 51°22.03 2°46.284 -999 -999 -999 -999 -999
2006-12-22 11:19 51°21.835 2°46.07 -999 -999 -999 -999 -999
2006-12-22 11:20 51°21.602 2°46.092 -999 -999 -999 -999 -999
2006-12-22 11:21 51°21.381 2°46.231 -999 -999 -999 -999 -999
2006-12-22 11:22 51°21.16 2°46.377 -999 -999 -999 -999 -999
2006-12-22 11:23 51°20.944 2°46.539 -999 -999 -999 -999 -999
2006-12-22 11:24 51°20.724 2°46.679 -999 -999 -999 -999 -999
2006-12-22 11:25 51°20.499 2°46.776 -999 -999 -999 -999 -999
2006-12-22 11:26 51°20.267 2°46.811 -999 -999 -999 -999 -999
2006-12-22 11:27 51°20.036 2°46.734 -999 -999 -999 -999 -999
2006-12-22 11:28 51°19.807 2°46.627 -999 -999 -999 -999 -999
2006-12-22 11:29 51°19.578 2°46.527 -999 -999 -999 -999 -999
2006-12-22 11:30 51°19.35 2°46.415 -999 -999 -999 -999 -999
2006-12-22 11:31 51°19.137 2°46.24 -999 -999 -999 -999 -999
2006-12-22 11:32 51°18.931 2°46.054 -999 -999 -999 -999 -999
2006-12-22 11:33 51°18.724 2°45.875 -999 -999 -999 -999 -999
2006-12-22 11:34 51°18.517 2°45.697 -999 -999 -999 -999 -999
2006-12-22 11:35 51°18.311 2°45.518 -999 -999 -999 -999 -999
2006-12-22 11:36 51°18.105 2°45.343 -999 -999 -999 -999 -999
2006-12-22 11:37 51°17.899 2°45.174 -999 -999 -999 -999 -999
2006-12-22 11:38 51°17.694 2°45.006 -999 -999 -999 -999 -999
2006-12-22 11:39 51°17.489 2°44.829 -999 -999 -999 -999 -999
2006-12-22 11:40 51°17.283 2°44.659 -999 -999 -999 -999 -999
2006-12-22 11:41 51°17.076 2°44.49 -999 -999 -999 -999 -999
2006-12-22 11:42 51°16.87 2°44.319 -999 -999 -999 -999 -999
2006-12-22 11:43 51°16.663 2°44.149 -999 -999 -999 -999 -999
2006-12-22 11:44 51°16.441 2°44.053 -999 -999 -999 -999 -999
2006-12-22 11:45 51°16.22 2°44.157 -999 -999 -999 -999 -999
2006-12-22 11:46 51°16.079 2°44.444 -999 -999 -999 -999 -999
2006-12-22 11:47 51°16.068 2°44.823 -999 -999 -999 -999 -999
2006-12-22 11:48 51°16.057 2°45.207 -999 -999 -999 -999 -999
2006-12-22 11:49 51°16.039 2°45.593 -999 -999 -999 -999 -999
2006-12-22 11:50 51°16.017 2°45.981 -999 -999 -999 -999 -999
2006-12-22 11:51 51°15.989 2°46.368 -999 -999 -999 -999 -999
2006-12-22 11:52 51°15.96 2°46.756 -999 -999 -999 -999 -999
2006-12-22 11:53 51°15.93 2°47.144 -999 -999 -999 -999 -999
2006-12-22 11:54 51°15.898 2°47.532 -999 -999 -999 -999 -999
2006-12-22 11:55 51°15.866 2°47.92 -999 -999 -999 -999 -999
2006-12-22 11:56 51°15.834 2°48.307 -999 -999 -999 -999 -999
2006-12-22 11:57 51°15.8 2°48.695 -999 -999 -999 -999 -999
2006-12-22 11:58 51°15.764 2°49.082 -999 -999 -999 -999 -999
2006-12-22 11:59 51°15.728 2°49.469 -999 -999 -999 -999 -999
2006-12-22 12:00 51°15.688 2°49.855 -999 -999 -999 -999 -999
2006-12-22 12:01 51°15.643 2°50.241 -999 -999 -999 -999 -999
2006-12-22 12:02 51°15.602 2°50.622 -999 -999 -999 -999 -999
2006-12-22 12:03 51°15.555 2°50.999 -999 -999 -999 -999 -999
2006-12-22 12:04 51°15.496 2°51.371 -999 -999 -999 -999 -999
2006-12-22 12:05 51°15.419 2°51.731 -999 -999 -999 -999 -999
2006-12-22 12:06 51°15.309 2°52.065 -999 -999 -999 -999 -999
2006-12-22 12:07 51°15.193 2°52.397 -999 -999 -999 -999 -999
2006-12-22 12:08 51°15.085 2°52.733 -999 -999 -999 -999 -999
2006-12-22 12:09 51°15.003 2°53.003 -999 -999 -999 -999 -999
2006-12-22 12:10 51°14.912 2°53.301 -999 -999 -999 -999 -999
2006-12-22 12:11 51°14.818 2°53.6 -999 -999 -999 -999 -999
2006-12-22 12:12 51°14.729 2°53.904 -999 -999 -999 -999 -999
2006-12-22 12:13 51°14.638 2°54.207 -999 -999 -999 -999 -999
2006-12-22 12:14 51°14.551 2°54.516 -999 -999 -999 -999 -999
2006-12-22 12:15 51°14.465 2°54.826 -999 -999 -999 -999 -999
2006-12-22 12:16 51°14.356 2°55.115 -999 -999 -999 -999 -999
2006-12-22 12:17 51°14.239 2°55.302 -999 -999 -999 -999 -999
2006-12-22 12:18 51°14.116 2°55.423 -999 -999 -999 -999 -999
2006-12-22 12:19 51°13.999 2°55.509 -999 -999 -999 -999 -999
2006-12-22 12:20 51°13.895 2°55.584 -999 -999 -999 -999 -999
2006-12-22 12:21 51°13.796 2°55.664 -999 -999 -999 -999 -999
2006-12-22 12:22 51°13.716 2°55.782 -999 -999 -999 -999 -999
2006-12-22 12:23 51°13.658 2°55.907 -999 -999 -999 -999 -999
2006-12-22 12:24 51°13.62 2°56.012 -999 -999 -999 -999 -999
2006-12-22 12:25 51°13.602 2°56.083 -999 -999 -999 -999 -999
2006-12-22 12:26 51°13.6 2°56.09 -999 -999 -999 -999 -999
2006-12-22 12:27 51°13.597 2°56.095 -999 -999 -999 -999 -999
2006-12-22 12:28 51°13.598 2°56.094 -999 -999 -999 -999 -999